createdAt,value
2022-08-16T00:00:45.286Z,24.40
2022-08-16T00:03:32.672Z,24.40
2022-08-16T00:06:25.911Z,24.40
2022-08-16T00:09:10.719Z,24.50
2022-08-16T00:12:05.657Z,24.40
2022-08-16T00:14:56.594Z,24.40
2022-08-16T00:17:56.120Z,24.30
2022-08-16T00:20:46.664Z,24.30
2022-08-16T00:23:34.795Z,24.40
2022-08-16T00:26:44.492Z,24.30
2022-08-16T00:29:32.962Z,24.20
2022-08-16T00:32:21.696Z,24.10
2022-08-16T00:35:12.783Z,24.20
2022-08-16T00:38:40.013Z,24.10
2022-08-16T00:41:13.974Z,24.10
2022-08-16T00:43:56.717Z,24.00
2022-08-16T00:46:52.591Z,24.10
2022-08-16T00:49:45.033Z,24.10
2022-08-16T00:52:45.826Z,24.00
2022-08-16T00:55:37.587Z,24.20
2022-08-16T00:58:35.032Z,24.30
2022-08-16T01:01:32.735Z,24.20
2022-08-16T01:04:31.060Z,24.00
2022-08-16T01:07:20.665Z,23.80
2022-08-16T01:10:16.491Z,24.00
2022-08-16T01:13:05.811Z,24.00
2022-08-16T01:15:58.943Z,24.00
2022-08-16T01:18:44.680Z,23.90
2022-08-16T01:21:43.217Z,23.80
2022-08-16T01:24:52.337Z,23.90
2022-08-16T01:27:46.964Z,23.70
2022-08-16T01:30:31.755Z,23.80
2022-08-16T01:33:19.919Z,23.70
2022-08-16T01:36:13.754Z,23.70
2022-08-16T01:39:02.935Z,23.60
2022-08-16T01:42:01.776Z,23.60
2022-08-16T01:44:52.321Z,23.60
2022-08-16T01:47:49.516Z,23.60
2022-08-16T01:50:43.441Z,23.70
2022-08-16T01:53:55.468Z,23.70
2022-08-16T01:56:47.025Z,23.70
2022-08-16T01:59:32.685Z,23.40
2022-08-16T02:02:27.192Z,23.40
2022-08-16T02:05:10.931Z,23.30
2022-08-16T02:08:05.240Z,23.30
2022-08-16T02:10:46.694Z,23.10
2022-08-16T02:13:42.099Z,23.30
2022-08-16T02:17:02.706Z,23.40
2022-08-16T02:19:59.860Z,23.30
2022-08-16T02:22:49.790Z,23.20
2022-08-16T02:25:52.101Z,23.20
2022-08-16T02:28:46.981Z,23.00
2022-08-16T02:32:04.208Z,23.10
2022-08-16T02:34:40.851Z,23.10
2022-08-16T02:37:51.466Z,23.10
2022-08-16T02:40:33.734Z,23.20
2022-08-16T02:43:21.845Z,23.30
2022-08-16T02:46:18.724Z,23.40
2022-08-16T02:49:08.466Z,23.40
2022-08-16T02:51:58.714Z,23.20
2022-08-16T02:54:46.748Z,23.30
2022-08-16T02:57:37.967Z,23.20
2022-08-16T03:00:34.594Z,23.20
2022-08-16T03:03:24.358Z,23.30
2022-08-16T03:06:39.069Z,23.10
2022-08-16T03:09:23.728Z,22.90
2022-08-16T03:12:30.053Z,22.80
2022-08-16T03:15:27.720Z,22.90
2022-08-16T03:18:34.323Z,22.90
2022-08-16T03:21:25.829Z,23.00
2022-08-16T03:24:29.236Z,23.00
2022-08-16T03:27:20.768Z,22.80
2022-08-16T03:30:16.383Z,22.80
2022-08-16T03:33:18.756Z,22.80
2022-08-16T03:36:29.876Z,22.90
2022-08-16T03:39:20.182Z,22.90
2022-08-16T03:42:20.425Z,22.80
2022-08-16T03:45:05.771Z,22.90
2022-08-16T03:47:58.192Z,22.80
2022-08-16T03:50:41.733Z,22.60
2022-08-16T03:53:57.513Z,22.50
2022-08-16T03:56:57.547Z,22.60
2022-08-16T03:59:47.963Z,22.60
2022-08-16T04:02:40.303Z,22.70
2022-08-16T04:05:26.342Z,22.50
2022-08-16T04:08:23.099Z,22.50
2022-08-16T04:11:28.766Z,22.40
2022-08-16T04:14:33.362Z,22.40
2022-08-16T04:17:30.861Z,22.30
2022-08-16T04:20:33.957Z,22.40
2022-08-16T04:23:25.806Z,22.40
2022-08-16T04:26:16.790Z,22.30
2022-08-16T04:29:16.951Z,22.30
2022-08-16T04:32:09.057Z,22.30
2022-08-16T04:34:54.763Z,22.50
2022-08-16T04:37:42.979Z,22.30
2022-08-16T04:40:31.905Z,22.20
2022-08-16T04:43:20.010Z,22.30
2022-08-16T04:46:29.936Z,22.30
2022-08-16T04:49:18.357Z,22.40
2022-08-16T04:52:34.647Z,22.30
2022-08-16T04:55:20.040Z,22.30
2022-08-16T04:58:44.081Z,22.40
2022-08-16T05:01:58.936Z,22.40
2022-08-16T05:04:30.103Z,22.30
2022-08-16T05:07:20.522Z,22.50
2022-08-16T05:10:20.065Z,22.60
2022-08-16T05:13:15.770Z,22.60
2022-08-16T05:16:04.023Z,22.60
2022-08-16T05:18:49.800Z,22.70
2022-08-16T05:21:41.069Z,22.60
2022-08-16T05:24:24.799Z,22.60
2022-08-16T05:27:12.917Z,22.60
2022-08-16T05:30:00.677Z,22.60
2022-08-16T05:32:58.812Z,22.60
2022-08-16T05:35:55.012Z,22.40
2022-08-16T05:38:50.896Z,22.60
2022-08-16T05:41:51.958Z,22.60
2022-08-16T05:44:33.758Z,22.70
2022-08-16T05:47:25.834Z,22.70
2022-08-16T05:50:19.554Z,22.80
2022-08-16T05:53:16.788Z,22.50
2022-08-16T05:56:21.018Z,22.50
2022-08-16T05:59:06.835Z,22.70
2022-08-16T06:01:55.065Z,22.80
2022-08-16T06:04:42.241Z,22.80
2022-08-16T06:07:32.982Z,22.80
2022-08-16T06:10:33.293Z,22.90
2022-08-16T06:13:27.798Z,23.00
2022-08-16T06:16:29.983Z,23.10
2022-08-16T06:19:20.064Z,23.20
2022-08-16T06:22:37.530Z,23.20
2022-08-16T06:25:36.420Z,23.40
2022-08-16T06:28:36.548Z,23.30
2022-08-16T06:31:32.893Z,23.50
2022-08-16T06:34:56.976Z,23.40
2022-08-16T06:37:51.263Z,23.40
2022-08-16T06:40:39.952Z,23.50
2022-08-16T06:43:37.904Z,23.50
2022-08-16T06:46:43.824Z,23.50
2022-08-16T06:49:32.731Z,23.70
2022-08-16T06:52:59.615Z,23.70
2022-08-16T06:55:34.521Z,23.70
2022-08-16T06:58:22.075Z,23.70
2022-08-16T07:01:46.262Z,23.70
2022-08-16T07:04:37.178Z,23.90
2022-08-16T07:07:24.155Z,23.70
2022-08-16T07:10:19.832Z,24.00
2022-08-16T07:13:53.828Z,24.00
2022-08-16T07:16:35.854Z,24.00
2022-08-16T07:20:02.518Z,24.20
2022-08-16T07:22:39.052Z,24.20
2022-08-16T07:25:28.804Z,24.30
2022-08-16T07:28:20.897Z,24.30
2022-08-16T07:31:14.265Z,24.60
2022-08-16T07:33:56.875Z,24.60
2022-08-16T07:36:58.055Z,24.80
2022-08-16T07:39:58.872Z,24.60
2022-08-16T07:42:47.120Z,24.80
2022-08-16T07:45:33.599Z,25.10
2022-08-16T07:48:22.136Z,25.20
2022-08-16T07:51:12.832Z,25.20
2022-08-16T07:54:09.443Z,25.20
2022-08-16T07:57:01.853Z,25.20
2022-08-16T07:59:49.992Z,25.30
2022-08-16T08:02:38.904Z,25.40
2022-08-16T08:05:36.834Z,25.60
2022-08-16T08:08:50.260Z,25.70
2022-08-16T08:11:37.527Z,25.80
2022-08-16T08:14:34.868Z,25.80
2022-08-16T08:17:24.056Z,25.70
2022-08-16T08:20:05.898Z,25.50
2022-08-16T08:23:00.911Z,25.40
2022-08-16T08:25:55.898Z,25.60
2022-08-16T08:28:39.119Z,25.60
2022-08-16T08:31:35.896Z,25.60
2022-08-16T08:34:25.076Z,25.70
2022-08-16T08:37:19.939Z,25.90
2022-08-16T08:40:14.196Z,25.90
2022-08-16T08:43:12.564Z,25.90
2022-08-16T08:46:17.853Z,26.20
2022-08-16T08:49:02.868Z,26.20
2022-08-16T08:51:55.031Z,26.50
2022-08-16T08:54:36.936Z,26.60
2022-08-16T08:57:26.024Z,26.70
2022-08-16T09:00:30.932Z,26.80
2022-08-16T09:03:21.352Z,26.80
2022-08-16T09:06:03.928Z,27.00
2022-08-16T09:08:48.038Z,27.00
2022-08-16T09:11:42.901Z,27.00
2022-08-16T09:14:39.060Z,27.00
2022-08-16T09:17:51.481Z,27.20
2022-08-16T09:20:59.293Z,27.20
2022-08-16T09:23:49.893Z,27.10
2022-08-16T09:26:45.924Z,27.20
2022-08-16T09:29:44.916Z,27.40
2022-08-16T09:32:34.083Z,27.50
2022-08-16T09:35:16.988Z,27.60
2022-08-16T09:38:05.139Z,27.60
2022-08-16T09:40:54.951Z,27.50
2022-08-16T09:43:58.263Z,27.60
2022-08-16T09:46:57.767Z,27.80
2022-08-16T09:49:41.002Z,27.80
2022-08-16T09:52:28.923Z,27.50
2022-08-16T09:55:19.155Z,27.30
2022-08-16T09:58:10.679Z,27.40
2022-08-16T10:01:00.810Z,27.40
2022-08-16T10:04:02.864Z,27.30
2022-08-16T10:06:51.135Z,27.30
2022-08-16T10:09:35.919Z,27.20
2022-08-16T10:12:59.709Z,27.30
2022-08-16T10:15:54.964Z,27.30
2022-08-16T10:18:56.505Z,27.40
2022-08-16T10:21:57.025Z,27.50
2022-08-16T10:24:55.717Z,27.70
2022-08-16T10:27:53.339Z,27.80
2022-08-16T10:30:43.249Z,27.80
2022-08-16T10:33:34.185Z,28.10
2022-08-16T10:36:39.251Z,28.10
2022-08-16T10:39:21.942Z,27.90
2022-08-16T10:42:14.339Z,28.00
2022-08-16T10:44:56.010Z,28.00
2022-08-16T10:47:45.168Z,28.10
2022-08-16T10:50:28.019Z,28.30
2022-08-16T10:53:18.199Z,28.50
2022-08-16T10:56:52.534Z,28.60
2022-08-16T10:59:45.149Z,28.80
2022-08-16T11:03:00.833Z,28.90
2022-08-16T11:08:47.212Z,28.80
2022-08-16T11:11:35.101Z,28.80
2022-08-16T11:21:28.999Z,28.80
2022-08-16T11:24:41.453Z,28.70
2022-08-16T11:27:35.569Z,28.90
2022-08-16T11:30:37.767Z,29.10
2022-08-16T11:36:38.184Z,29.60
2022-08-16T11:39:19.935Z,29.30
2022-08-16T11:42:16.833Z,29.10
2022-08-16T11:45:09.988Z,29.10
2022-08-16T11:48:00.337Z,29.10
2022-08-16T11:50:42.971Z,29.00
2022-08-16T11:53:35.959Z,28.90
2022-08-16T11:56:40.066Z,28.90
2022-08-16T11:59:33.909Z,29.00
2022-08-16T12:02:33.061Z,29.00
2022-08-16T12:05:23.191Z,28.90
2022-08-16T12:08:12.992Z,28.90
2022-08-16T12:11:05.609Z,28.80
2022-08-16T12:14:01.973Z,28.90
2022-08-16T12:16:55.556Z,29.10
2022-08-16T12:19:39.000Z,29.10
2022-08-16T12:22:27.128Z,29.20
2022-08-16T12:25:09.043Z,29.20
2022-08-16T12:27:59.178Z,29.00
2022-08-16T12:30:45.991Z,29.00
2022-08-16T12:33:44.414Z,29.20
2022-08-16T12:36:33.973Z,29.10
2022-08-16T12:39:22.126Z,29.20
2022-08-16T12:42:11.092Z,29.40
2022-08-16T12:45:01.343Z,29.30
2022-08-16T12:48:32.833Z,29.60
2022-08-16T12:51:22.301Z,29.80
2022-08-16T12:54:06.976Z,29.90
2022-08-16T12:56:56.150Z,29.90
2022-08-16T12:59:39.892Z,30.00
2022-08-16T13:02:33.438Z,29.80
2022-08-16T13:05:19.095Z,29.90
2022-08-16T13:08:07.336Z,29.90
2022-08-16T13:11:02.010Z,30.00
2022-08-16T13:13:57.084Z,29.90
2022-08-16T13:16:53.010Z,30.00
2022-08-16T13:20:06.567Z,30.10
2022-08-16T13:22:49.703Z,30.10
2022-08-16T13:25:40.052Z,30.10
2022-08-16T13:28:22.615Z,30.10
2022-08-16T13:31:18.012Z,30.30
2022-08-16T13:34:09.439Z,30.50
2022-08-16T13:37:06.029Z,30.50
2022-08-16T13:39:54.232Z,30.70
2022-08-16T13:42:47.094Z,30.80
2022-08-16T13:45:36.428Z,30.40
2022-08-16T13:48:26.513Z,30.50
2022-08-16T13:51:31.235Z,30.50
2022-08-16T13:54:14.021Z,30.60
2022-08-16T13:57:02.941Z,30.70
2022-08-16T13:59:45.329Z,30.70
2022-08-16T14:02:33.258Z,30.30
2022-08-16T14:05:16.015Z,30.10
2022-08-16T14:08:11.191Z,30.10
2022-08-16T14:10:54.018Z,30.40
2022-08-16T14:13:49.122Z,30.40
2022-08-16T14:16:48.049Z,30.50
2022-08-16T14:19:37.213Z,30.60
2022-08-16T14:22:42.378Z,30.60
2022-08-16T14:25:33.458Z,30.50
2022-08-16T14:28:23.724Z,30.50
2022-08-16T14:31:14.339Z,30.50
2022-08-16T14:33:57.020Z,30.50
2022-08-16T14:36:45.717Z,30.80
2022-08-16T14:39:35.090Z,30.80
2022-08-16T14:42:29.276Z,30.60
2022-08-16T14:45:14.061Z,31.00
2022-08-16T14:48:02.155Z,31.00
2022-08-16T14:50:44.135Z,31.10
2022-08-16T14:53:33.155Z,30.80
2022-08-16T14:56:42.892Z,30.90
2022-08-16T14:59:25.000Z,30.80
2022-08-16T15:02:27.674Z,31.30
2022-08-16T15:05:23.257Z,31.20
2022-08-16T15:08:12.080Z,31.30
2022-08-16T15:11:00.301Z,31.10
2022-08-16T15:13:42.041Z,30.80
2022-08-16T15:16:30.192Z,30.80
2022-08-16T15:19:20.122Z,30.80
2022-08-16T15:22:01.239Z,30.70
2022-08-16T15:24:53.043Z,30.70
2022-08-16T15:27:54.755Z,30.70
2022-08-16T15:30:56.677Z,30.60
2022-08-16T15:33:58.338Z,30.70
2022-08-16T15:36:55.086Z,30.70
2022-08-16T15:39:44.108Z,30.80
2022-08-16T15:42:30.260Z,30.60
2022-08-16T15:45:19.050Z,30.40
2022-08-16T15:48:05.454Z,30.40
2022-08-16T15:50:54.080Z,30.30
2022-08-16T15:53:41.909Z,30.40
2022-08-16T15:56:42.475Z,30.40
2022-08-16T15:59:48.131Z,30.30
2022-08-16T16:02:31.794Z,30.40
2022-08-16T16:05:20.073Z,30.50
2022-08-16T16:08:12.323Z,30.40
2022-08-16T16:11:13.132Z,30.60
2022-08-16T16:14:09.124Z,30.40
2022-08-16T16:17:07.106Z,30.10
2022-08-16T16:19:55.468Z,30.10
2022-08-16T16:22:44.086Z,30.30
2022-08-16T16:25:33.305Z,30.20
2022-08-16T16:29:05.958Z,30.10
2022-08-16T16:31:36.043Z,30.30
2022-08-16T16:34:18.103Z,30.00
2022-08-16T16:37:09.523Z,30.00
2022-08-16T16:39:52.164Z,30.00
2022-08-16T16:42:44.531Z,30.10
2022-08-16T16:45:33.519Z,30.30
2022-08-16T16:48:34.794Z,30.50
2022-08-16T16:51:30.162Z,30.30
2022-08-16T16:54:27.803Z,30.30
2022-08-16T16:57:37.132Z,29.90
2022-08-16T17:00:29.939Z,29.80
2022-08-16T17:03:26.204Z,29.80
2022-08-16T17:06:15.329Z,29.90
2022-08-16T17:08:57.100Z,30.20
2022-08-16T17:11:47.299Z,30.40
2022-08-16T17:14:50.143Z,30.50
2022-08-16T17:17:59.679Z,30.30
2022-08-16T17:20:42.136Z,29.90
2022-08-16T17:23:59.167Z,29.80
2022-08-16T17:26:39.151Z,29.70
2022-08-16T17:29:30.821Z,29.50
2022-08-16T17:32:33.731Z,29.30
2022-08-16T17:35:33.825Z,29.40
2022-08-16T17:38:17.248Z,29.30
2022-08-16T17:41:33.218Z,29.30
2022-08-16T17:44:21.708Z,29.30
2022-08-16T17:47:09.199Z,29.20
2022-08-16T17:49:58.838Z,29.20
2022-08-16T17:52:49.675Z,29.20
2022-08-16T17:55:42.249Z,29.30
2022-08-16T17:58:31.149Z,29.20
2022-08-16T18:01:20.359Z,29.10
2022-08-16T18:04:09.637Z,29.20
2022-08-16T18:06:58.375Z,29.00
2022-08-16T18:09:42.209Z,28.90
2022-08-16T18:12:50.991Z,28.70
2022-08-16T18:15:46.198Z,28.90
2022-08-16T18:18:34.347Z,29.00
2022-08-16T18:21:41.137Z,28.90
2022-08-16T18:24:24.738Z,28.80
2022-08-16T18:27:25.980Z,28.60
2022-08-16T18:30:17.715Z,28.40
2022-08-16T18:33:06.153Z,28.40
2022-08-16T18:35:57.857Z,28.20
2022-08-16T18:38:47.152Z,28.20
2022-08-16T18:41:37.090Z,28.20
2022-08-16T18:44:25.600Z,28.20
2022-08-16T18:47:16.455Z,28.20
2022-08-16T18:49:58.259Z,28.30
2022-08-16T18:52:54.309Z,28.10
2022-08-16T18:55:45.387Z,28.20
2022-08-16T18:58:34.616Z,28.10
2022-08-16T19:01:24.373Z,28.00
2022-08-16T19:04:56.107Z,27.80
2022-08-16T19:07:20.158Z,27.90
2022-08-16T19:10:09.438Z,27.80
2022-08-16T19:13:04.170Z,27.70
2022-08-16T19:16:01.236Z,27.80
2022-08-16T19:18:44.326Z,27.60
2022-08-16T19:21:39.233Z,27.40
2022-08-16T19:24:29.302Z,27.30
2022-08-16T19:27:19.262Z,27.30
2022-08-16T19:30:08.487Z,27.20
2022-08-16T19:32:58.201Z,27.30
2022-08-16T19:35:48.357Z,27.20
2022-08-16T19:38:37.258Z,27.00
2022-08-16T19:41:25.401Z,27.00
2022-08-16T19:44:07.198Z,27.00
2022-08-16T19:47:02.191Z,27.00
2022-08-16T19:49:50.646Z,26.90
2022-08-16T19:52:44.213Z,27.00
2022-08-16T19:55:32.471Z,26.90
2022-08-16T19:58:21.221Z,26.70
2022-08-16T20:01:09.427Z,26.80
2022-08-16T20:03:51.195Z,26.60
2022-08-16T20:06:39.423Z,26.40
2022-08-16T20:09:22.224Z,26.50
2022-08-16T20:12:14.356Z,26.50
2022-08-16T20:15:09.266Z,26.60
2022-08-16T20:18:04.238Z,26.70
2022-08-16T20:21:08.391Z,26.70
2022-08-16T20:23:50.213Z,26.70
2022-08-16T20:26:40.749Z,26.70
2022-08-16T20:29:22.233Z,26.60
2022-08-16T20:32:11.893Z,26.70
2022-08-16T20:34:57.299Z,26.60
2022-08-16T20:37:47.609Z,26.50
2022-08-16T20:40:35.055Z,26.40
2022-08-16T20:43:25.356Z,26.30
2022-08-16T20:46:14.291Z,26.20
2022-08-16T20:49:02.416Z,26.30
2022-08-16T20:51:55.878Z,26.40
2022-08-16T20:54:48.434Z,26.40
2022-08-16T20:57:37.197Z,26.40
2022-08-16T21:00:29.041Z,26.50
2022-08-16T21:03:26.210Z,26.40
2022-08-16T21:06:22.304Z,26.20
2022-08-16T21:09:11.557Z,26.20
2022-08-16T21:12:00.240Z,26.20
2022-08-16T21:14:57.215Z,26.10
2022-08-16T21:17:54.263Z,26.10
2022-08-16T21:20:43.346Z,26.10
2022-08-16T21:23:32.314Z,26.00
2022-08-16T21:26:20.505Z,26.10
2022-08-16T21:29:02.299Z,26.10
2022-08-16T21:31:53.338Z,26.10
2022-08-16T21:34:36.319Z,26.10
2022-08-16T21:37:25.359Z,26.00
2022-08-16T21:40:07.363Z,26.00
2022-08-16T21:42:55.449Z,25.90
2022-08-16T21:45:36.232Z,25.90
2022-08-16T21:48:33.792Z,25.90
2022-08-16T21:51:27.322Z,25.90
2022-08-16T21:54:09.404Z,25.90
2022-08-16T21:56:57.237Z,25.90
2022-08-16T21:59:45.378Z,25.70
2022-08-16T22:02:38.706Z,25.80
2022-08-16T22:05:26.481Z,25.80
2022-08-16T22:08:16.336Z,25.90
2022-08-16T22:11:08.279Z,25.80
2022-08-16T22:13:58.919Z,25.70
2022-08-16T22:16:55.945Z,25.70
2022-08-16T22:19:45.268Z,25.60
2022-08-16T22:22:35.193Z,25.50
2022-08-16T22:25:26.269Z,25.50
2022-08-16T22:28:08.497Z,25.60
2022-08-16T22:30:57.333Z,25.70
2022-08-16T22:33:46.266Z,25.70
2022-08-16T22:36:35.483Z,25.70
2022-08-16T22:39:19.276Z,25.70
2022-08-16T22:42:14.450Z,25.70
2022-08-16T22:44:56.281Z,25.70
2022-08-16T22:47:44.479Z,25.70
2022-08-16T22:50:26.361Z,25.70
2022-08-16T22:53:16.241Z,25.50
2022-08-16T22:55:58.264Z,25.50
2022-08-16T22:58:48.501Z,25.40
2022-08-16T23:01:39.286Z,25.40
2022-08-16T23:04:27.450Z,25.40
2022-08-16T23:07:16.313Z,25.50
2022-08-16T23:10:04.524Z,25.60
2022-08-16T23:13:02.373Z,25.60
2022-08-16T23:16:02.313Z,25.70
2022-08-16T23:19:05.330Z,25.70
2022-08-16T23:21:54.468Z,25.60
2022-08-16T23:24:38.243Z,25.60
2022-08-16T23:27:44.496Z,25.60
2022-08-16T23:30:28.356Z,25.50
2022-08-16T23:33:19.504Z,25.50
2022-08-16T23:36:11.297Z,25.40
2022-08-16T23:38:59.532Z,25.30
2022-08-16T23:41:48.323Z,25.30
2022-08-16T23:44:56.631Z,25.30
2022-08-16T23:47:45.368Z,25.20
2022-08-16T23:50:36.528Z,25.10
2022-08-16T23:53:28.295Z,25.10
2022-08-16T23:56:26.302Z,25.10
2022-08-16T23:59:14.449Z,25.10
